Time;durP1;ratioP1;P1;durP2;ratioP2;P2;SDS_P1;SDS_P2;PMS_P1;PMS_P2;Temp;Humidity;BMP_temperature;BMP_pressure;BME280_temperature;BME280_humidity;BME280_pressure;Samples;Min_cycle;Max_cycle;Signal;HPM_P1;HPM_P2
2022/10/30 00:03:01;;;;;;;5.90;5.30;;;;;;;21.25;38.84;95832.47;6017218;28;105777;-68
2022/10/30 00:06:07;;;;;;;6.20;5.20;;;;;;;21.25;38.71;95830.59;6017420;28;103718;-66
2022/10/30 00:09:10;;;;;;;5.00;4.60;;;;;;;21.24;38.73;95829.00;6012538;28;104136;-65
2022/10/30 00:12:13;;;;;;;5.13;4.67;;;;;;;21.23;38.76;95827.44;6012207;28;105357;-65
2022/10/30 00:15:16;;;;;;;5.40;5.00;;;;;;;21.21;38.53;95825.03;6016103;29;104241;-65
2022/10/30 00:18:21;;;;;;;5.83;5.33;;;;;;;21.19;38.57;95821.88;6016529;28;103827;-64
2022/10/30 00:21:25;;;;;;;5.43;5.03;;;;;;;21.18;38.25;95827.47;6006092;29;103650;-64
2022/10/30 00:24:29;;;;;;;5.63;5.20;;;;;;;21.19;38.87;95829.06;6016383;29;103592;-64
2022/10/30 00:27:32;;;;;;;6.23;5.70;;;;;;;21.18;38.72;95828.28;6016931;28;103867;-64
2022/10/30 00:30:35;;;;;;;5.33;4.83;;;;;;;21.17;38.65;95817.88;6016852;29;103520;-66
2022/10/30 00:33:38;;;;;;;5.77;5.27;;;;;;;21.14;38.82;95823.78;6005634;28;104262;-65
2022/10/30 00:36:43;;;;;;;5.30;4.90;;;;;;;21.12;38.92;95824.06;6016579;29;102938;-65
2022/10/30 00:39:46;;;;;;;5.60;5.10;;;;;;;21.13;38.57;95817.66;6016326;29;103758;-65
2022/10/30 00:42:49;;;;;;;5.20;4.80;;;;;;;21.10;38.70;95818.22;6015845;28;103679;-65
2022/10/30 00:45:52;;;;;;;5.30;4.80;;;;;;;21.12;38.29;95808.09;6006593;28;104764;-65
2022/10/30 00:49:03;;;;;;;6.00;5.23;;;;;;;21.10;38.93;95814.75;6019459;28;103734;-64
2022/10/30 00:52:10;;;;;;;5.10;4.60;;;;;;;21.11;38.73;95819.00;6020276;28;103752;-65
2022/10/30 00:55:17;;;;;;;5.70;5.20;;;;;;;21.11;38.70;95816.34;6016590;28;103738;-65
2022/10/30 00:58:24;;;;;;;5.00;4.60;;;;;;;21.09;38.21;95815.84;6015169;28;104445;-67
2022/10/30 01:01:32;;;;;;;5.17;4.67;;;;;;;21.08;38.41;95808.94;6020026;28;104335;-64
2022/10/30 01:04:37;;;;;;;5.03;4.63;;;;;;;21.08;38.47;95807.06;6020412;29;103370;-65
2022/10/30 01:07:42;;;;;;;5.00;4.43;;;;;;;21.07;38.57;95802.81;6010290;28;103858;-65
2022/10/30 01:10:46;;;;;;;5.13;4.67;;;;;;;21.05;38.37;95802.31;6020097;28;104376;-64
2022/10/30 01:13:51;;;;;;;4.90;4.40;;;;;;;21.05;38.36;95812.16;6020347;28;104163;-64
2022/10/30 01:17:09;;;;;;;4.93;4.53;;;;;;;21.02;38.32;95794.84;6020044;28;103876;-66
2022/10/30 01:20:41;;;;;;;5.73;5.23;;;;;;;21.03;38.66;95795.66;6010202;28;104352;-64
2022/10/30 01:23:56;;;;;;;5.80;4.63;;;;;;;21.01;38.31;95789.81;6016390;29;103870;-65
2022/10/30 01:27:11;;;;;;;5.43;4.93;;;;;;;21.01;38.23;95773.84;6020327;28;103623;-65
2022/10/30 01:30:24;;;;;;;5.30;4.90;;;;;;;21.00;38.31;95778.34;6014917;28;103681;-65
2022/10/30 01:33:38;;;;;;;5.10;4.70;;;;;;;21.02;37.98;95775.44;6018405;28;105643;-64
2022/10/30 01:36:46;;;;;;;5.20;4.80;;;;;;;21.02;38.11;95778.91;6020206;28;103790;-65
2022/10/30 01:39:52;;;;;;;6.23;5.73;;;;;;;21.00;38.18;95780.22;6019451;28;103675;-64
2022/10/30 01:42:56;;;;;;;5.47;4.97;;;;;;;20.98;37.97;95783.16;6009956;28;104157;-65
2022/10/30 01:46:16;;;;;;;5.80;5.30;;;;;;;20.98;38.21;95771.72;6019859;28;103692;-65
2022/10/30 01:49:49;;;;;;;6.00;5.50;;;;;;;20.97;37.83;95776.25;6018544;28;103688;-65
2022/10/30 01:53:01;;;;;;;5.67;5.17;;;;;;;20.98;38.07;95775.19;6015207;28;104182;-65
2022/10/30 01:56:21;;;;;;;5.30;4.90;;;;;;;20.96;38.16;95765.91;6012675;28;103888;-65
2022/10/30 01:59:29;;;;;;;5.47;4.97;;;;;;;20.93;38.30;95770.72;6018698;28;104237;-65
2022/10/30 02:02:32;;;;;;;5.50;5.00;;;;;;;20.93;38.40;95761.94;6018323;29;103373;-66
2022/10/30 02:05:41;;;;;;;5.70;5.20;;;;;;;20.90;38.09;95757.19;6008581;28;103908;-66
2022/10/30 02:08:44;;;;;;;5.40;4.90;;;;;;;20.93;38.28;95759.28;6019066;28;103739;-65
2022/10/30 02:11:50;;;;;;;5.40;4.90;;;;;;;20.92;38.18;95753.16;6018830;28;103895;-65
2022/10/30 02:14:57;;;;;;;6.63;4.90;;;;;;;20.91;37.95;95750.78;6018798;29;103677;-65
2022/10/30 02:18:00;;;;;;;5.23;4.83;;;;;;;20.91;38.00;95761.44;6008552;29;104045;-66
2022/10/30 02:21:07;;;;;;;5.87;5.30;;;;;;;20.88;37.92;95757.47;6018336;28;103872;-65
2022/10/30 02:24:10;;;;;;;6.00;5.50;;;;;;;20.89;38.04;95758.25;6018478;28;104404;-69
2022/10/30 02:27:13;;;;;;;5.03;4.50;;;;;;;20.89;37.92;95767.03;6013471;28;103938;-68
2022/10/30 02:30:17;;;;;;;5.60;5.10;;;;;;;20.88;38.03;95760.13;6014334;29;105533;-68
2022/10/30 02:33:20;;;;;;;4.93;4.50;;;;;;;20.87;37.94;95761.19;6014833;29;103899;-69
2022/10/30 02:36:25;;;;;;;5.33;4.90;;;;;;;20.85;38.07;95762.56;6018518;29;106462;-69
2022/10/30 02:39:28;;;;;;;5.70;5.10;;;;;;;20.88;37.95;95768.09;6008796;29;106045;-69
2022/10/30 02:42:31;;;;;;;5.13;4.63;;;;;;;20.87;38.12;95763.06;6019034;29;107533;-68
2022/10/30 02:45:34;;;;;;;5.00;4.60;;;;;;;20.87;38.10;95755.88;6018785;29;103483;-69
2022/10/30 02:48:37;;;;;;;5.80;5.30;;;;;;;20.85;38.10;95754.56;6018237;28;103751;-69
2022/10/30 02:51:42;;;;;;;5.60;5.10;;;;;;;20.84;37.98;95758.31;6008837;29;103516;-69
2022/10/30 02:54:45;;;;;;;5.57;5.07;;;;;;;20.83;37.76;95770.78;6018171;29;103761;-69
2022/10/30 02:57:48;;;;;;;5.43;4.97;;;;;;;20.83;38.02;95762.81;6018348;29;103260;-69
2022/10/30 03:00:51;;;;;;;5.37;4.90;;;;;;;20.83;38.00;95775.31;6018012;28;103787;-68
2022/10/30 03:03:54;;;;;;;6.40;5.70;;;;;;;20.83;37.68;95765.47;6008015;28;104450;-68
2022/10/30 03:06:59;;;;;;;5.07;4.67;;;;;;;20.81;37.87;95770.28;6018301;28;104090;-68
2022/10/30 03:10:02;;;;;;;5.47;5.07;;;;;;;20.81;37.95;95778.25;6018009;28;103694;-69
2022/10/30 03:13:05;;;;;;;5.70;5.20;;;;;;;20.80;38.01;95784.66;6013479;28;103797;-68
2022/10/30 03:16:10;;;;;;;5.80;5.30;;;;;;;20.79;37.91;95785.72;6012767;28;103840;-69
2022/10/30 03:19:13;;;;;;;5.00;4.60;;;;;;;20.80;37.63;95787.31;6018549;29;103507;-69
2022/10/30 03:22:17;;;;;;;5.30;4.90;;;;;;;20.79;37.74;95791.03;6016778;28;103714;-68
2022/10/30 03:25:22;;;;;;;4.97;4.57;;;;;;;20.79;37.68;95788.38;6006488;28;104207;-68
2022/10/30 03:28:27;;;;;;;5.73;5.23;;;;;;;20.78;38.17;95789.47;6016496;28;104090;-69
2022/10/30 03:31:31;;;;;;;5.70;4.90;;;;;;;20.76;37.76;95780.97;6017693;29;103553;-69
2022/10/30 03:34:34;;;;;;;5.00;4.60;;;;;;;20.77;37.86;95777.22;6017873;29;103464;-69
2022/10/30 03:37:39;;;;;;;5.50;5.00;;;;;;;20.76;37.70;95774.84;6007289;28;103694;-68
2022/10/30 03:40:42;;;;;;;5.33;4.93;;;;;;;20.76;37.88;95773.00;6017216;28;103683;-69
2022/10/30 03:43:45;;;;;;;5.57;5.10;;;;;;;20.73;37.69;95773.56;6017597;28;103783;-69
2022/10/30 03:46:48;;;;;;;5.57;5.10;;;;;;;20.74;37.55;95783.13;6015211;28;103911;-68
2022/10/30 03:49:51;;;;;;;5.90;5.40;;;;;;;20.74;37.78;95775.13;6009871;28;108269;-69
2022/10/30 03:52:57;;;;;;;5.30;4.80;;;;;;;20.72;37.84;95774.63;6015970;28;103852;-69
2022/10/30 03:56:01;;;;;;;5.93;5.40;;;;;;;20.73;37.29;95770.91;6016883;28;103957;-69
2022/10/30 03:59:04;;;;;;;5.67;5.10;;;;;;;20.75;37.50;95773.28;6006179;29;103798;-69
2022/10/30 04:02:07;;;;;;;5.00;4.60;;;;;;;20.72;37.80;95773.84;6016246;28;102990;-68
2022/10/30 04:05:11;;;;;;;5.80;5.20;;;;;;;20.74;38.13;95777.81;6017411;28;103609;-68
2022/10/30 04:08:15;;;;;;;6.00;5.40;;;;;;;20.73;38.17;95762.91;6016997;28;104921;-67
2022/10/30 04:11:18;;;;;;;5.50;5.10;;;;;;;20.69;38.03;95759.22;6007194;28;103758;-68
2022/10/30 04:14:21;;;;;;;5.80;5.30;;;;;;;20.69;37.99;95755.78;6016627;28;103641;-69
2022/10/30 04:17:24;;;;;;;5.90;5.40;;;;;;;20.71;37.94;95765.06;6014982;29;103491;-67
2022/10/30 04:20:28;;;;;;;5.70;5.20;;;;;;;20.72;38.08;95753.34;6016230;28;103872;-68
2022/10/30 04:23:32;;;;;;;6.20;5.70;;;;;;;20.75;38.23;95750.13;6009410;28;104167;-68
2022/10/30 04:26:35;;;;;;;5.43;4.93;;;;;;;20.78;37.92;95757.53;6019649;28;103781;-68
2022/10/30 04:29:40;;;;;;;5.43;4.93;;;;;;;20.79;37.89;95759.13;6018998;29;103942;-68
2022/10/30 04:32:47;;;;;;;5.53;5.10;;;;;;;20.79;38.03;95768.97;6013457;28;105359;-68
2022/10/30 04:35:50;;;;;;;5.83;5.33;;;;;;;20.77;37.96;95766.59;6018793;28;103945;-68
2022/10/30 04:38:55;;;;;;;5.60;5.10;;;;;;;20.77;38.12;95763.94;6019600;28;103776;-68
2022/10/30 04:41:58;;;;;;;5.93;5.27;;;;;;;20.78;38.36;95768.19;6020648;29;103757;-69
2022/10/30 04:45:02;;;;;;;6.20;5.70;;;;;;;20.78;37.95;95778.81;6008817;28;103778;-68
2022/10/30 04:48:10;;;;;;;5.70;5.20;;;;;;;20.78;38.05;95776.16;6020372;29;103620;-69
2022/10/30 04:51:14;;;;;;;5.70;5.20;;;;;;;20.77;38.03;95771.91;6020626;28;103876;-68
2022/10/30 04:54:19;;;;;;;5.50;5.00;;;;;;;20.78;37.92;95778.03;6019954;28;103766;-68
2022/10/30 04:57:23;;;;;;;6.57;5.80;;;;;;;20.75;38.14;95778.59;6006053;29;103631;-68
2022/10/30 05:00:27;;;;;;;8.40;5.87;;;;;;;20.76;37.95;95794.28;6015054;28;103842;-69
2022/10/30 05:03:30;;;;;;;5.67;5.20;;;;;;;20.76;38.08;95782.84;6011497;29;103500;-68
2022/10/30 05:06:33;;;;;;;5.37;4.97;;;;;;;20.73;37.99;95778.88;6015390;28;103760;-69
2022/10/30 05:09:38;;;;;;;6.37;5.87;;;;;;;20.76;37.98;95786.28;6012280;29;104409;-68
2022/10/30 05:12:42;;;;;;;5.33;4.93;;;;;;;20.77;37.96;95787.88;6013749;29;103633;-68
2022/10/30 05:15:45;;;;;;;5.40;5.00;;;;;;;20.74;37.83;95785.78;6018460;28;103854;-68
2022/10/30 05:18:48;;;;;;;5.67;5.17;;;;;;;20.73;38.24;95788.72;6009549;28;104235;-68
2022/10/30 05:21:51;;;;;;;5.80;5.23;;;;;;;20.73;37.95;95791.38;6019135;28;103904;-67
2022/10/30 05:24:55;;;;;;;5.77;5.30;;;;;;;20.74;38.00;95792.97;6018675;28;103894;-68
2022/10/30 05:27:59;;;;;;;6.50;5.20;;;;;;;20.76;38.15;95794.28;6018876;28;103716;-69
2022/10/30 05:31:02;;;;;;;5.87;5.37;;;;;;;20.77;38.02;95793.19;6007381;28;104003;-68
2022/10/30 05:34:05;;;;;;;7.40;5.80;;;;;;;20.76;38.26;95796.13;6018917;29;106164;-68
2022/10/30 05:37:09;;;;;;;6.80;6.20;;;;;;;20.77;38.13;95792.41;6018850;28;104804;-67
2022/10/30 05:40:14;;;;;;;5.70;5.30;;;;;;;20.76;37.99;95799.59;6018240;28;104187;-67
2022/10/30 05:43:17;;;;;;;7.07;6.40;;;;;;;20.70;37.59;95802.56;6006068;29;106539;-68
2022/10/30 05:46:20;;;;;;;9.20;7.27;;;;;;;20.61;36.90;95800.50;6017841;29;103942;-67
2022/10/30 05:49:23;;;;;;;8.90;7.93;;;;;;;20.55;36.21;95796.28;6018903;29;106843;-67
2022/10/30 05:52:26;;;;;;;9.60;8.63;;;;;;;20.53;36.55;95795.78;6014369;28;104707;-68
2022/10/30 05:55:31;;;;;;;12.10;9.00;;;;;;;20.55;36.37;95798.94;6013197;29;104017;-68
2022/10/30 05:58:34;;;;;;;11.63;8.70;;;;;;;20.54;36.58;95794.72;6018172;28;104264;-68
2022/10/30 06:01:37;;;;;;;13.33;8.83;;;;;;;20.50;36.43;95792.84;6018505;28;104166;-67
2022/10/30 06:04:41;;;;;;;9.73;8.83;;;;;;;21.71;34.50;95787.50;6007533;28;103712;-68
2022/10/30 06:07:44;;;;;;;9.90;8.90;;;;;;;23.50;31.34;95787.22;6018953;28;104086;-68
2022/10/30 06:10:48;;;;;;;10.10;9.17;;;;;;;23.30;31.55;95783.06;6018742;28;103833;-69
2022/10/30 06:13:51;;;;;;;9.10;8.20;;;;;;;21.79;33.94;95787.66;6017987;28;104798;-68
2022/10/30 06:16:54;;;;;;;9.90;9.00;;;;;;;21.44;34.12;95799.53;6009501;28;104885;-68
2022/10/30 06:19:57;;;;;;;8.90;8.07;;;;;;;21.31;34.89;95792.19;6018458;29;104870;-68
2022/10/30 06:23:02;;;;;;;13.63;9.47;;;;;;;21.30;34.85;95793.28;6017907;28;103787;-68
2022/10/30 06:26:06;;;;;;;14.20;9.90;;;;;;;21.26;35.17;95783.47;6013381;28;103875;-67
2022/10/30 06:29:09;;;;;;;17.07;9.17;;;;;;;21.14;35.09;95789.16;6010919;29;103345;-67
2022/10/30 06:32:12;;;;;;;13.50;9.13;;;;;;;21.05;35.41;95789.00;6016485;29;104071;-66
2022/10/30 06:35:16;;;;;;;10.80;9.70;;;;;;;20.91;34.87;95782.72;6017768;28;103752;-66
2022/10/30 06:38:19;;;;;;;10.00;7.80;;;;;;;20.98;34.80;95799.13;6008627;28;103704;-67
2022/10/30 06:41:24;;;;;;;13.33;7.70;;;;;;;21.09;34.96;95786.56;6017274;28;103872;-68
2022/10/30 06:44:32;;;;;;;15.40;7.50;;;;;;;21.29;35.00;95786.38;6016235;28;103602;-65
2022/10/30 06:47:35;;;;;;;12.33;8.77;;;;;;;21.32;35.04;95791.13;6018432;28;103889;-64
2022/10/30 06:50:38;;;;;;;14.13;8.93;;;;;;;21.42;35.04;95787.56;6007568;29;104550;-64
2022/10/30 06:53:41;;;;;;;15.60;8.80;;;;;;;21.54;34.93;95795.16;6017477;28;103866;-62
2022/10/30 06:56:50;;;;;;;15.13;9.07;;;;;;;21.59;34.90;95792.44;6018478;28;103868;-64
2022/10/30 06:59:53;;;;;;;10.97;9.80;;;;;;;21.66;35.18;95806.19;6018004;28;104791;-63
2022/10/30 07:02:57;;;;;;;12.90;9.00;;;;;;;21.70;35.32;95805.38;6007134;28;103747;-63
2022/10/30 07:06:01;;;;;;;16.50;10.20;;;;;;;21.75;35.10;95801.84;6017824;28;105675;-64
2022/10/30 07:09:04;;;;;;;11.53;9.90;;;;;;;21.79;35.38;95794.88;6018569;29;105722;-62
2022/10/30 07:12:09;;;;;;;12.23;9.90;;;;;;;21.83;35.38;95805.78;6014005;28;105420;-63
2022/10/30 07:15:12;;;;;;;14.20;10.70;;;;;;;21.85;36.00;95800.97;6012581;28;103864;-64
2022/10/30 07:18:15;;;;;;;15.10;10.43;;;;;;;21.87;36.38;95794.28;6018158;28;104133;-64
2022/10/30 07:21:18;;;;;;;83.87;19.17;;;;;;;21.89;36.70;95794.78;6016982;28;103773;-63
2022/10/30 07:24:21;;;;;;;91.40;20.43;;;;;;;21.93;36.95;95803.00;6007416;28;104163;-63
2022/10/30 07:27:26;;;;;;;47.80;17.73;;;;;;;21.93;37.71;95785.13;6015498;29;107338;-63
2022/10/30 07:30:29;;;;;;;46.07;15.60;;;;;;;21.97;37.46;95788.81;6008783;29;103710;-63
2022/10/30 07:33:32;;;;;;;43.03;16.53;;;;;;;21.98;37.22;95792.25;6006401;28;103886;-64
2022/10/30 07:36:35;;;;;;;34.27;15.77;;;;;;;22.00;37.39;95784.75;5999542;28;103910;-63
2022/10/30 07:39:38;;;;;;;36.73;15.53;;;;;;;21.98;37.26;95785.06;6017481;29;103787;-63
2022/10/30 07:42:42;;;;;;;29.30;14.67;;;;;;;22.05;37.73;95790.84;6016523;28;103899;-64
2022/10/30 07:45:46;;;;;;;32.63;14.93;;;;;;;22.07;37.26;95790.56;6018046;28;103685;-64
2022/10/30 07:48:49;;;;;;;28.90;14.53;;;;;;;22.11;37.62;95786.22;6006818;29;104828;-63
2022/10/30 07:51:52;;;;;;;20.57;14.23;;;;;;;22.18;37.17;95788.53;6014925;28;103759;-65
2022/10/30 07:54:55;;;;;;;23.17;13.10;;;;;;;22.15;37.35;95775.78;6016816;29;104049;-68
2022/10/30 07:58:00;;;;;;;26.00;12.57;;;;;;;22.05;37.60;95769.53;6012327;28;104415;-68
2022/10/30 08:01:04;;;;;;;42.00;15.50;;;;;;;21.96;37.48;95760.56;6010690;28;103781;-69
2022/10/30 08:04:10;;;;;;;35.47;14.33;;;;;;;21.94;37.26;95768.06;6016321;28;103678;-68
2022/10/30 08:07:13;;;;;;;15.70;11.30;;;;;;;21.97;36.95;95754.16;6017806;29;106423;-68
2022/10/30 08:10:16;;;;;;;15.43;12.50;;;;;;;22.07;37.46;95761.25;6005304;28;103672;-69
2022/10/30 08:13:20;;;;;;;20.80;12.37;;;;;;;22.07;38.48;95759.38;6017474;29;103285;-68
2022/10/30 08:16:24;;;;;;;24.33;11.87;;;;;;;22.14;37.98;95743.00;6017797;28;103859;-70
2022/10/30 08:19:27;;;;;;;18.00;12.60;;;;;;;22.08;37.79;95742.28;6018263;29;103539;-71
2022/10/30 08:22:30;;;;;;;15.20;11.93;;;;;;;22.07;37.26;95732.72;6007849;29;103513;-70
2022/10/30 08:25:33;;;;;;;15.30;12.23;;;;;;;22.12;37.32;95737.16;6017486;29;103856;-69
2022/10/30 08:28:37;;;;;;;13.00;11.60;;;;;;;22.17;36.94;95736.28;6017714;28;103753;-71
2022/10/30 08:31:40;;;;;;;11.53;10.33;;;;;;;22.13;37.32;95729.97;6017162;29;106978;-70
2022/10/30 08:34:43;;;;;;;18.93;11.53;;;;;;;22.16;37.72;95730.16;6006175;29;104202;-70
2022/10/30 08:37:46;;;;;;;13.77;12.27;;;;;;;22.18;37.75;95743.22;6018437;28;104011;-70
2022/10/30 08:40:49;;;;;;;12.77;11.50;;;;;;;22.18;37.47;95740.53;6017319;29;103910;-69
2022/10/30 08:43:54;;;;;;;14.00;11.60;;;;;;;22.21;37.39;95732.00;6012513;29;103829;-69
2022/10/30 08:46:57;;;;;;;13.70;11.60;;;;;;;22.19;37.27;95737.63;6014374;28;104750;-69
2022/10/30 08:50:00;;;;;;;16.50;11.70;;;;;;;22.19;37.62;95734.94;6017286;29;104014;-70
2022/10/30 08:53:05;;;;;;;13.13;12.03;;;;;;;22.18;37.52;95730.69;6017354;28;103775;-70
2022/10/30 08:56:08;;;;;;;15.07;13.57;;;;;;;22.16;37.48;95727.50;6007310;29;103742;-70
2022/10/30 08:59:12;;;;;;;13.43;12.03;;;;;;;22.16;37.27;95718.72;6018044;29;103644;-70
2022/10/30 09:02:22;;;;;;;13.40;12.20;;;;;;;22.20;37.41;95712.53;6016261;29;103718;-70
2022/10/30 09:05:26;;;;;;;13.33;12.03;;;;;;;22.22;37.44;95709.59;6016837;29;103692;-70
2022/10/30 09:08:29;;;;;;;14.33;12.77;;;;;;;22.24;37.40;95707.41;6008674;28;104927;-70
2022/10/30 09:11:32;;;;;;;12.70;11.50;;;;;;;22.24;37.19;95704.75;6020633;28;103904;-69
2022/10/30 09:14:36;;;;;;;13.00;11.80;;;;;;;22.26;37.41;95707.91;6021848;28;103953;-70
2022/10/30 09:17:39;;;;;;;14.07;12.63;;;;;;;22.26;37.58;95705.25;6015367;28;103735;-70
2022/10/30 09:20:42;;;;;;;15.27;13.80;;;;;;;22.20;37.30;95701.88;6013603;29;104023;-71
2022/10/30 09:23:45;;;;;;;12.60;11.40;;;;;;;22.22;37.49;95696.25;6017358;28;103892;-71
2022/10/30 09:26:48;;;;;;;13.10;11.90;;;;;;;22.22;37.64;95698.91;6018817;29;105533;-70
2022/10/30 09:29:53;;;;;;;12.37;11.27;;;;;;;22.21;38.12;95702.66;6009968;28;104353;-68
2022/10/30 09:32:56;;;;;;;15.10;13.90;;;;;;;22.25;37.45;95693.00;6019253;28;103738;-71
2022/10/30 09:36:02;;;;;;;25.30;23.23;;;;;;;22.30;37.97;95690.25;6018230;29;107760;-70
2022/10/30 09:39:05;;;;;;;16.10;14.80;;;;;;;22.28;38.17;95695.06;6019312;28;103791;-69
2022/10/30 09:42:38;;;;;;;14.90;13.60;;;;;;;22.27;38.35;95682.84;6009102;29;106189;-70
2022/10/30 09:45:59;;;;;;;13.70;12.40;;;;;;;22.23;37.93;95684.50;6015844;28;103695;-70
2022/10/30 09:49:24;;;;;;;11.27;10.27;;;;;;;22.28;37.71;95679.09;6017898;29;105237;-70
2022/10/30 09:52:30;;;;;;;13.47;12.07;;;;;;;22.36;37.35;95670.44;6015432;28;105078;-70
2022/10/30 09:55:42;;;;;;;16.40;14.80;;;;;;;22.39;37.67;95651.97;6015043;28;104270;-69
2022/10/30 09:58:59;;;;;;;14.47;13.17;;;;;;;22.37;37.72;95651.47;6020466;29;107794;-70
2022/10/30 10:02:15;;;;;;;12.00;11.00;;;;;;;22.32;38.04;95648.88;6010316;29;103708;-69
2022/10/30 10:05:24;;;;;;;11.77;10.63;;;;;;;22.22;38.08;95640.25;6010259;28;103812;-70
2022/10/30 10:08:33;;;;;;;11.73;10.63;;;;;;;22.29;38.28;95638.78;6017520;29;104285;-70
2022/10/30 10:11:40;;;;;;;11.87;10.73;;;;;;;22.31;39.68;95633.16;6013961;29;104768;-69
2022/10/30 10:14:46;;;;;;;14.17;10.70;;;;;;;22.23;39.25;95623.19;6014037;28;104458;-69
2022/10/30 10:17:52;;;;;;;11.97;10.67;;;;;;;22.20;38.70;95624.56;6012930;28;103731;-68
2022/10/30 10:20:59;;;;;;;13.13;11.83;;;;;;;22.23;38.63;95621.31;6005200;29;106481;-68
2022/10/30 10:24:05;;;;;;;12.43;11.23;;;;;;;22.24;38.31;95606.09;5996372;29;103467;-69
2022/10/30 10:27:17;;;;;;;13.27;11.77;;;;;;;22.33;38.47;95599.78;6004586;29;103896;-69
2022/10/30 10:30:22;;;;;;;11.77;10.67;;;;;;;22.31;38.55;95590.50;6018772;28;103773;-69
2022/10/30 10:33:44;;;;;;;13.27;11.77;;;;;;;22.21;38.80;95591.50;6016859;28;103900;-69
2022/10/30 10:36:57;;;;;;;12.47;11.27;;;;;;;22.09;38.55;95575.94;6017506;28;103849;-69
2022/10/30 10:40:17;;;;;;;12.10;10.97;;;;;;;22.21;38.68;95582.69;6005292;28;104010;-69
2022/10/30 10:43:28;;;;;;;11.60;10.40;;;;;;;22.39;38.31;95584.50;6008790;29;103619;-69
2022/10/30 10:46:53;;;;;;;11.60;10.60;;;;;;;22.41;38.94;95579.69;6020207;29;103162;-69
2022/10/30 10:50:10;;;;;;;10.90;9.77;;;;;;;22.42;39.02;95575.91;6011749;28;103850;-69
2022/10/30 10:53:21;;;;;;;11.37;10.17;;;;;;;22.44;39.22;95575.63;6023358;29;102716;-70
2022/10/30 10:56:29;;;;;;;11.80;10.60;;;;;;;22.46;39.01;95573.44;6023251;29;103744;-69
2022/10/30 10:59:37;;;;;;;10.67;9.70;;;;;;;22.49;39.07;95568.31;6022686;28;102924;-69
2022/10/30 11:02:46;;;;;;;11.43;10.33;;;;;;;22.51;39.50;95565.34;6013230;28;103959;-70
2022/10/30 11:05:53;;;;;;;12.97;11.57;;;;;;;22.47;39.75;95561.69;6020580;28;103773;-69
2022/10/30 11:09:12;;;;;;;12.23;11.23;;;;;;;22.47;40.00;95562.47;6023171;28;102837;-68
2022/10/30 11:12:15;;;;;;;11.20;10.20;;;;;;;22.44;40.31;95549.75;6017264;29;104052;-68
2022/10/30 11:15:35;;;;;;;12.83;11.70;;;;;;;22.44;40.61;95541.75;6016921;29;103490;-69
2022/10/30 11:18:38;;;;;;;12.27;11.07;;;;;;;22.42;40.04;95533.25;6021989;28;103898;-69
2022/10/30 11:21:48;;;;;;;12.90;11.90;;;;;;;22.39;40.42;95528.50;6022087;28;103768;-70
2022/10/30 11:24:51;;;;;;;13.20;12.07;;;;;;;22.34;40.84;95526.72;6003459;28;104087;-68
2022/10/30 11:27:56;;;;;;;13.63;12.47;;;;;;;22.38;41.19;95526.94;6004980;29;103950;-69
2022/10/30 11:31:18;;;;;;;14.03;12.60;;;;;;;22.33;40.82;95524.34;6014979;28;103807;-68
2022/10/30 11:34:29;;;;;;;13.90;12.80;;;;;;;22.28;41.04;95511.13;5972981;28;1257012;-68
2022/10/30 11:37:35;;;;;;;14.30;13.10;;;;;;;22.28;41.03;95511.13;6002101;28;103290;-69
2022/10/30 11:40:39;;;;;;;13.83;12.57;;;;;;;22.27;41.58;95504.22;6016448;29;103355;-69
2022/10/30 11:43:44;;;;;;;14.27;13.20;;;;;;;22.24;41.74;95494.94;6015449;28;103766;-69
2022/10/30 11:46:47;;;;;;;13.73;12.63;;;;;;;22.21;41.86;95495.53;6011716;28;103737;-69
2022/10/30 11:49:55;;;;;;;15.53;13.90;;;;;;;22.20;41.78;95493.16;6012042;28;103878;-70
2022/10/30 11:53:01;;;;;;;14.07;12.87;;;;;;;22.14;41.98;95483.66;6016047;28;103751;-68
2022/10/30 11:56:14;;;;;;;13.23;11.80;;;;;;;22.16;41.72;95492.13;6016066;28;103680;-70
2022/10/30 11:59:20;;;;;;;13.03;11.73;;;;;;;22.14;41.47;95483.66;6006448;28;106153;-69
2022/10/30 12:02:27;;;;;;;11.57;10.57;;;;;;;22.13;41.64;95476.75;6016433;29;103523;-69
2022/10/30 12:05:37;;;;;;;12.03;11.03;;;;;;;22.11;41.68;95480.50;6017289;29;103681;-69
2022/10/30 12:08:41;;;;;;;11.43;10.43;;;;;;;22.11;41.55;95479.69;6014696;28;103722;-71
2022/10/30 12:11:45;;;;;;;11.57;10.53;;;;;;;22.13;42.34;95474.06;6004748;29;103436;-69
2022/10/30 12:14:48;;;;;;;10.93;10.13;;;;;;;22.14;42.24;95467.66;6009950;28;103742;-70
2022/10/30 12:17:52;;;;;;;11.87;10.77;;;;;;;22.18;42.15;95468.63;6018091;29;103905;-71
2022/10/30 12:20:57;;;;;;;10.23;9.43;;;;;;;22.21;42.18;95471.53;6012180;29;104134;-73
2022/10/30 12:24:08;;;;;;;11.03;10.07;;;;;;;22.29;42.35;95468.16;6007590;29;104516;-72
2022/10/30 12:27:14;;;;;;;10.73;9.77;;;;;;;22.27;42.76;95464.22;6007703;29;105236;-72
2022/10/30 12:30:25;;;;;;;11.43;9.90;;;;;;;22.25;42.61;95459.19;6007224;29;103978;-73
2022/10/30 12:33:35;;;;;;;10.30;9.37;;;;;;;22.30;42.81;95455.63;5994078;29;103545;-71
2022/10/30 12:36:45;;;;;;;9.60;8.70;;;;;;;22.31;42.71;95449.19;6006878;29;103742;-72
2022/10/30 12:40:00;;;;;;;9.40;8.50;;;;;;;22.31;42.29;95449.19;6007868;29;103801;-72
2022/10/30 12:43:12;;;;;;;9.37;8.43;;;;;;;22.31;42.83;95449.19;6008230;29;104175;-71
2022/10/30 12:46:33;;;;;;;9.13;8.20;;;;;;;22.29;42.25;95443.38;5999865;29;104125;-72
2022/10/30 12:49:41;;;;;;;8.00;7.30;;;;;;;22.31;42.50;95446.53;6010656;29;103988;-72
2022/10/30 12:52:49;;;;;;;9.07;8.33;;;;;;;22.28;42.63;95444.47;6012974;28;103761;-72
2022/10/30 12:55:58;;;;;;;9.50;8.60;;;;;;;22.33;42.05;95444.34;6000633;28;103757;-71
2022/10/30 12:59:21;;;;;;;8.23;7.40;;;;;;;22.33;42.09;95444.34;6010589;29;103782;-72
2022/10/30 13:02:36;;;;;;;8.37;7.63;;;;;;;22.31;42.64;95435.88;6009794;29;103591;-72
2022/10/30 13:05:43;;;;;;;10.47;6.67;;;;;;;22.32;42.29;95434.78;6012623;29;103532;-72
2022/10/30 13:08:56;;;;;;;7.93;7.23;;;;;;;22.31;42.41;95430.53;6004060;28;103690;-71
2022/10/30 13:12:04;;;;;;;7.30;6.70;;;;;;;22.28;42.30;95423.13;6001666;29;103537;-72
2022/10/30 13:15:18;;;;;;;8.33;7.40;;;;;;;22.29;42.43;95424.72;5997222;29;103899;-71
2022/10/30 13:18:23;;;;;;;7.13;6.53;;;;;;;22.32;42.06;95418.78;6009650;29;103903;-71
2022/10/30 13:21:34;;;;;;;7.30;6.70;;;;;;;22.31;41.97;95419.88;6019679;29;103630;-72
2022/10/30 13:24:48;;;;;;;7.10;6.40;;;;;;;22.29;42.24;95422.03;6019251;29;103732;-72
2022/10/30 13:27:59;;;;;;;7.43;6.50;;;;;;;22.28;41.71;95423.13;6020515;28;104221;-72
2022/10/30 13:31:10;;;;;;;7.90;7.30;;;;;;;22.28;41.43;95421.25;6008493;28;103904;-71
2022/10/30 13:34:27;;;;;;;6.37;5.83;;;;;;;22.31;41.39;95419.88;6019182;28;103992;-71
2022/10/30 13:37:36;;;;;;;6.70;6.20;;;;;;;22.26;41.72;95409.31;6019406;28;104294;-71
2022/10/30 13:40:44;;;;;;;6.13;5.63;;;;;;;22.28;41.80;95404.47;5998936;29;103758;-71
2022/10/30 13:43:59;;;;;;;6.50;5.80;;;;;;;22.29;41.50;95411.38;6014707;28;104248;-71
2022/10/30 13:47:19;;;;;;;6.20;5.67;;;;;;;22.30;41.47;95418.28;6016838;29;103878;-71
2022/10/30 13:50:35;;;;;;;6.60;6.00;;;;;;;22.29;41.54;95416.72;6019997;29;103533;-71
2022/10/30 13:53:43;;;;;;;6.23;5.73;;;;;;;22.25;41.37;95405.06;6008892;28;103799;-72
2022/10/30 13:56:48;;;;;;;5.63;5.20;;;;;;;22.22;41.60;95405.69;6020134;28;104319;-71
2022/10/30 14:00:03;;;;;;;6.83;5.40;;;;;;;22.21;41.43;95410.22;6017605;28;103901;-70
2022/10/30 14:03:27;;;;;;;5.50;5.10;;;;;;;22.23;41.60;95417.91;6014931;28;103900;-71
2022/10/30 14:06:40;;;;;;;6.33;5.83;;;;;;;22.21;41.37;95414.75;5991400;29;106590;-72
2022/10/30 14:09:54;;;;;;;5.97;5.07;;;;;;;22.18;41.20;95404.66;6019323;29;103675;-72
2022/10/30 14:13:13;;;;;;;5.23;4.83;;;;;;;22.18;41.13;95405.47;6019595;29;103472;-72
2022/10/30 14:16:37;;;;;;;5.63;5.13;;;;;;;22.18;41.44;95413.47;6008731;29;104273;-72
2022/10/30 14:20:16;;;;;;;5.40;5.00;;;;;;;22.21;41.50;95414.75;6019013;28;103702;-72
2022/10/30 14:23:22;;;;;;;5.00;4.50;;;;;;;22.21;41.48;95409.44;5996483;28;103788;-72